createdAt,value
2019-01-06T00:02:27.442Z,16.90
2019-01-06T00:07:36.374Z,18.59
2019-01-06T00:12:45.343Z,17.98
2019-01-06T00:17:54.275Z,19.17
2019-01-06T00:23:03.344Z,22.14
2019-01-06T00:28:12.242Z,20.61
2019-01-06T00:33:21.203Z,22.45
2019-01-06T00:38:30.130Z,23.58
2019-01-06T00:43:39.066Z,24.77
2019-01-06T00:48:48.056Z,22.89
2019-01-06T00:53:56.979Z,20.23
2019-01-06T00:59:05.936Z,22.40
2019-01-06T01:04:14.866Z,21.18
2019-01-06T01:09:23.847Z,22.38
2019-01-06T01:14:32.812Z,23.20
2019-01-06T01:19:41.882Z,34.27
2019-01-06T01:24:50.707Z,25.52
2019-01-06T01:29:59.645Z,22.92
2019-01-06T01:35:08.579Z,35.50
2019-01-06T01:40:17.588Z,23.07
2019-01-06T01:45:26.514Z,24.20
2019-01-06T01:50:35.459Z,24.28
2019-01-06T01:55:44.378Z,25.24
2019-01-06T02:00:53.354Z,23.23
2019-01-06T02:06:02.294Z,26.04
2019-01-06T02:11:11.282Z,22.09
2019-01-06T02:16:20.214Z,22.03
2019-01-06T02:21:29.226Z,25.31
2019-01-06T02:26:39.205Z,25.00
2019-01-06T02:31:48.167Z,22.54
2019-01-06T02:36:57.085Z,24.31
2019-01-06T02:42:06.063Z,19.87
2019-01-06T02:47:14.990Z,20.65
2019-01-06T02:52:23.944Z,20.16
2019-01-06T02:57:32.935Z,18.89
2019-01-06T03:02:41.869Z,19.15
2019-01-06T03:07:50.891Z,17.49
2019-01-06T03:12:59.811Z,17.42
2019-01-06T03:18:08.811Z,19.26
2019-01-06T03:23:17.731Z,27.04
2019-01-06T03:28:26.729Z,19.45
2019-01-06T03:33:35.677Z,18.67
2019-01-06T03:38:44.626Z,18.99
2019-01-06T03:43:53.551Z,22.85
2019-01-06T03:49:02.495Z,19.80
2019-01-06T03:54:11.469Z,23.57
2019-01-06T03:59:20.394Z,20.69
2019-01-06T04:04:29.351Z,21.42
2019-01-06T04:09:38.271Z,21.47
2019-01-06T04:14:47.236Z,22.22
2019-01-06T04:19:56.154Z,21.36
2019-01-06T04:25:05.120Z,26.45
2019-01-06T04:30:14.057Z,26.87
2019-01-06T04:35:23.074Z,24.91
2019-01-06T04:40:31.993Z,40.33
2019-01-06T04:45:41.018Z,27.74
2019-01-06T04:50:49.943Z,30.15
2019-01-06T04:55:58.962Z,29.30
2019-01-06T05:01:07.918Z,44.49
2019-01-06T05:06:16.855Z,41.13
2019-01-06T05:11:25.801Z,40.81
2019-01-06T05:16:34.762Z,37.03
2019-01-06T05:21:43.694Z,23.68
2019-01-06T05:26:52.723Z,24.78
2019-01-06T05:32:01.650Z,34.63
2019-01-06T05:37:10.658Z,22.41
2019-01-06T05:42:19.595Z,23.22
2019-01-06T05:47:28.613Z,23.57
2019-01-06T05:52:37.533Z,39.98
2019-01-06T05:57:46.534Z,27.45
2019-01-06T06:02:55.452Z,25.45
2019-01-06T06:08:04.433Z,43.59
2019-01-06T06:13:13.367Z,27.40
2019-01-06T06:18:22.310Z,27.03
2019-01-06T06:23:31.231Z,28.68
2019-01-06T06:28:40.206Z,38.28
2019-01-06T06:33:49.224Z,26.97
2019-01-06T06:38:58.230Z,42.82
2019-01-06T06:44:07.146Z,27.44
2019-01-06T06:49:16.114Z,26.97
2019-01-06T06:54:25.030Z,27.20
2019-01-06T06:59:33.997Z,25.11
2019-01-06T07:04:42.940Z,25.16
2019-01-06T07:09:51.886Z,24.06
2019-01-06T07:15:00.814Z,23.80
2019-01-06T07:20:09.758Z,24.90
2019-01-06T07:25:18.711Z,23.39
2019-01-06T07:30:27.664Z,23.32
2019-01-06T07:35:36.595Z,23.26
2019-01-06T07:40:45.545Z,24.46
2019-01-06T07:45:54.456Z,22.60
2019-01-06T07:51:03.448Z,23.00
2019-01-06T07:56:12.370Z,22.88
2019-01-06T08:01:21.330Z,23.12
2019-01-06T08:06:30.282Z,22.61
2019-01-06T08:11:39.276Z,23.81
2019-01-06T08:16:48.192Z,25.43
2019-01-06T08:21:57.218Z,23.42
2019-01-06T08:27:06.139Z,21.91
2019-01-06T08:32:15.162Z,21.94
2019-01-06T08:37:24.114Z,20.62
2019-01-06T08:42:33.106Z,20.40
2019-01-06T08:47:42.042Z,19.18
2019-01-06T08:52:51.064Z,18.21
2019-01-06T08:57:59.990Z,15.47
2019-01-06T09:03:09.006Z,14.69
2019-01-06T09:08:17.931Z,12.06
2019-01-06T09:13:27.034Z,12.91
2019-01-06T09:18:35.959Z,11.09
2019-01-06T09:23:46.519Z,18.49
2019-01-06T09:28:53.427Z,11.15
2019-01-06T09:34:02.458Z,17.12
2019-01-06T09:39:11.362Z,9.45
2019-01-06T09:44:20.340Z,11.75
2019-01-06T09:49:29.350Z,13.50
2019-01-06T09:54:38.302Z,14.75
2019-01-06T09:59:47.230Z,15.11
2019-01-06T10:04:56.182Z,15.08
2019-01-06T10:10:05.127Z,16.51
2019-01-06T10:15:14.167Z,17.81
2019-01-06T10:20:23.103Z,18.74
2019-01-06T10:25:32.067Z,19.05
2019-01-06T10:30:40.991Z,17.25
2019-01-06T10:35:49.954Z,17.43
2019-01-06T10:40:58.890Z,16.14
2019-01-06T10:46:07.846Z,16.99
2019-01-06T10:51:16.790Z,15.92
2019-01-06T10:56:25.750Z,14.67
2019-01-06T11:01:34.679Z,15.23
2019-01-06T11:06:43.619Z,16.39
2019-01-06T11:11:52.563Z,13.97
2019-01-06T11:17:01.602Z,12.92
2019-01-06T11:22:10.534Z,13.66
2019-01-06T11:27:19.530Z,14.47
2019-01-06T11:32:28.450Z,16.76
2019-01-06T11:37:37.454Z,14.03
2019-01-06T11:42:46.378Z,15.32
2019-01-06T11:47:55.351Z,14.02
2019-01-06T11:53:04.294Z,17.31
2019-01-06T11:58:13.254Z,17.35
2019-01-06T12:03:22.186Z,15.66
2019-01-06T12:08:31.219Z,13.98
2019-01-06T12:13:40.164Z,18.85
2019-01-06T12:18:50.518Z,14.34
2019-01-06T12:23:57.655Z,12.79
2019-01-06T12:29:06.654Z,14.40
2019-01-06T12:34:15.570Z,14.81
2019-01-06T12:39:24.670Z,12.75
2019-01-06T12:44:33.598Z,12.79
2019-01-06T12:49:42.607Z,13.08
2019-01-06T12:54:51.554Z,13.77
2019-01-06T13:00:00.567Z,13.28
2019-01-06T13:05:09.503Z,14.94
2019-01-06T13:10:18.528Z,17.26
2019-01-06T13:15:27.474Z,12.38
2019-01-06T13:20:36.503Z,10.70
2019-01-06T13:25:45.458Z,12.67
2019-01-06T13:30:54.493Z,12.03
2019-01-06T13:36:03.446Z,12.12
2019-01-06T13:41:12.403Z,12.84
2019-01-06T13:46:21.347Z,12.95
2019-01-06T13:51:30.355Z,12.71
2019-01-06T13:56:39.290Z,14.30
2019-01-06T14:01:48.303Z,15.99
2019-01-06T14:06:57.271Z,14.20
2019-01-06T14:12:09.535Z,18.74
2019-01-06T14:17:08.470Z,14.18
2019-01-06T14:22:17.494Z,14.18
2019-01-06T14:27:26.439Z,14.77
2019-01-06T14:32:35.409Z,14.19
2019-01-06T14:37:44.346Z,16.26
2019-01-06T14:42:53.306Z,13.65
2019-01-06T14:48:02.238Z,16.36
2019-01-06T14:53:11.202Z,15.75
2019-01-06T14:58:20.122Z,16.33
2019-01-06T15:03:29.111Z,17.71
2019-01-06T15:08:38.046Z,16.96
2019-01-06T15:13:47.052Z,22.54
2019-01-06T15:18:55.962Z,16.28
2019-01-06T15:24:04.919Z,18.08
2019-01-06T15:29:13.847Z,17.60
2019-01-06T15:34:22.882Z,19.85
2019-01-06T15:39:31.807Z,17.78
2019-01-06T15:44:40.793Z,24.35
2019-01-06T15:49:49.835Z,23.30
2019-01-06T15:54:58.739Z,23.64
2019-01-06T16:00:08.316Z,28.99
2019-01-06T16:05:17.247Z,32.40
2019-01-06T16:10:26.206Z,32.82
2019-01-06T16:15:36.750Z,33.64
2019-01-06T16:20:35.678Z,33.48
2019-01-06T16:25:44.702Z,26.45
2019-01-06T16:30:53.627Z,26.28
2019-01-06T16:36:02.582Z,26.78
2019-01-06T16:41:11.691Z,32.58
2019-01-06T16:46:20.736Z,29.99
2019-01-06T16:51:29.683Z,31.37
2019-01-06T16:56:38.679Z,31.29
2019-01-06T17:01:47.600Z,32.74
2019-01-06T17:06:56.558Z,32.87
2019-01-06T17:12:05.486Z,34.72
2019-01-06T17:17:14.466Z,34.26
2019-01-06T17:22:23.373Z,33.73
2019-01-06T17:27:32.335Z,34.15
2019-01-06T17:32:41.275Z,36.18
2019-01-06T17:37:50.262Z,34.65
2019-01-06T17:42:59.186Z,47.78
2019-01-06T17:48:08.171Z,34.75
2019-01-06T17:53:17.090Z,35.09
2019-01-06T17:58:26.101Z,34.84
2019-01-06T18:03:35.037Z,35.51
2019-01-06T18:08:44.066Z,34.46
2019-01-06T18:13:52.990Z,36.57
2019-01-06T18:19:02.057Z,46.61
2019-01-06T18:24:10.962Z,43.28
2019-01-06T18:29:20.006Z,34.38
2019-01-06T18:34:28.935Z,36.43
2019-01-06T18:39:37.980Z,36.08
2019-01-06T18:44:46.907Z,37.57
2019-01-06T18:49:55.871Z,38.79
2019-01-06T18:55:04.798Z,40.81
2019-01-06T19:00:13.753Z,44.99
2019-01-06T19:05:22.694Z,41.64
2019-01-06T19:10:31.648Z,40.61
2019-01-06T19:15:40.558Z,40.85
2019-01-06T19:20:49.535Z,40.07
2019-01-06T19:25:58.462Z,40.06
2019-01-06T19:31:07.486Z,42.45
2019-01-06T19:36:16.430Z,40.98
2019-01-06T19:41:25.378Z,40.79
2019-01-06T19:46:34.446Z,40.54
2019-01-06T19:51:43.375Z,42.32
2019-01-06T19:56:52.390Z,39.51
2019-01-06T20:02:01.318Z,59.59
2019-01-06T20:07:10.386Z,49.34
2019-01-06T20:12:19.311Z,66.83
2019-01-06T20:17:28.267Z,50.19
2019-01-06T20:22:37.191Z,66.62
2019-01-06T20:27:46.119Z,47.79
2019-01-06T20:32:55.053Z,45.86
2019-01-06T20:38:03.983Z,46.41
2019-01-06T20:43:12.930Z,43.10
2019-01-06T20:48:21.966Z,44.67
2019-01-06T20:53:30.907Z,42.99
2019-01-06T20:58:39.883Z,44.74
2019-01-06T21:03:48.810Z,43.97
2019-01-06T21:08:57.790Z,45.21
2019-01-06T21:14:07.756Z,42.26
2019-01-06T21:19:16.735Z,42.33
2019-01-06T21:24:25.658Z,55.91
2019-01-06T21:29:34.631Z,44.36
2019-01-06T21:34:43.566Z,40.42
2019-01-06T21:39:52.542Z,57.79
2019-01-06T21:45:01.483Z,42.87
2019-01-06T21:50:10.607Z,43.77
2019-01-06T21:55:19.544Z,40.85
2019-01-06T22:00:28.502Z,41.69
2019-01-06T22:05:37.426Z,41.33
2019-01-06T22:10:46.362Z,40.36
2019-01-06T22:15:55.330Z,39.54
2019-01-06T22:21:04.258Z,55.19
2019-01-06T22:26:13.186Z,42.30
2019-01-06T22:31:25.474Z,42.54
2019-01-06T22:36:30.602Z,59.07
2019-01-06T22:41:39.514Z,43.72
2019-01-06T22:46:48.511Z,42.70
2019-01-06T22:51:57.465Z,42.18
2019-01-06T22:57:06.424Z,44.91
2019-01-06T23:02:15.347Z,47.13
2019-01-06T23:07:24.312Z,44.85
2019-01-06T23:12:33.272Z,45.68
2019-01-06T23:17:42.190Z,47.05
2019-01-06T23:22:51.116Z,45.21
2019-01-06T23:28:00.124Z,46.56
2019-01-06T23:33:10.878Z,43.88
2019-01-06T23:38:17.595Z,67.55
2019-01-06T23:43:26.519Z,46.15
2019-01-06T23:48:35.538Z,49.28
2019-01-06T23:53:44.458Z,48.01
2019-01-06T23:58:53.406Z,67.20
